createdAt,value
2023-05-10T00:00:31.386Z,61.27
2023-05-10T00:01:31.389Z,63.80
2023-05-10T00:02:31.397Z,60.32
2023-05-10T00:03:31.455Z,62.82
2023-05-10T00:04:31.366Z,62.94
2023-05-10T00:05:31.333Z,61.95
2023-05-10T00:06:31.332Z,62.11
2023-05-10T00:07:31.312Z,58.14
2023-05-10T00:08:31.344Z,62.66
2023-05-10T00:09:31.300Z,59.73
2023-05-10T00:10:31.293Z,60.46
2023-05-10T00:11:31.364Z,61.90
2023-05-10T00:12:32.244Z,60.96
2023-05-10T00:13:31.421Z,62.90
2023-05-10T00:14:31.249Z,64.37
2023-05-10T00:15:31.245Z,62.90
2023-05-10T00:16:32.267Z,62.44
2023-05-10T00:17:31.239Z,61.09
2023-05-10T00:18:31.200Z,62.06
2023-05-10T00:19:31.182Z,60.19
2023-05-10T00:20:31.476Z,60.85
2023-05-10T00:21:31.150Z,59.71
2023-05-10T00:22:31.203Z,62.36
2023-05-10T00:23:31.135Z,62.48
2023-05-10T00:24:31.138Z,62.02
2023-05-10T00:25:31.116Z,61.14
2023-05-10T00:26:31.084Z,60.12
2023-05-10T00:27:31.105Z,61.83
2023-05-10T00:28:31.103Z,63.61
2023-05-10T00:29:31.096Z,61.03
2023-05-10T00:30:31.245Z,60.33
2023-05-10T00:31:31.119Z,61.46
2023-05-10T00:32:31.068Z,61.06
2023-05-10T00:33:31.040Z,60.85
2023-05-10T00:34:31.088Z,63.53
2023-05-10T00:35:30.997Z,61.45
2023-05-10T00:36:31.000Z,56.57
2023-05-10T00:37:30.995Z,62.75
2023-05-10T00:38:31.106Z,63.63
2023-05-10T00:39:31.592Z,59.11
2023-05-10T00:40:31.240Z,63.11
2023-05-10T00:41:30.939Z,60.90
2023-05-10T00:42:31.305Z,62.15
2023-05-10T00:43:30.918Z,60.94
2023-05-10T00:44:30.936Z,61.63
2023-05-10T00:45:30.928Z,60.44
2023-05-10T00:46:31.046Z,61.93
2023-05-10T00:47:30.928Z,61.88
2023-05-10T00:48:31.087Z,57.99
2023-05-10T00:49:30.856Z,61.47
2023-05-10T00:50:30.877Z,60.65
2023-05-10T00:51:30.842Z,62.54
2023-05-10T00:52:30.901Z,61.89
2023-05-10T00:53:30.835Z,61.52
2023-05-10T00:54:30.818Z,59.42
2023-05-10T00:55:30.900Z,61.23
2023-05-10T00:56:30.888Z,61.73
2023-05-10T00:57:30.776Z,61.34
2023-05-10T00:58:30.816Z,62.04
2023-05-10T00:59:30.743Z,60.48
2023-05-10T01:00:30.749Z,63.12
2023-05-10T01:01:30.807Z,62.59
2023-05-10T01:02:30.869Z,60.50
2023-05-10T01:03:30.739Z,62.61
2023-05-10T01:04:30.723Z,60.34
2023-05-10T01:05:30.679Z,60.03
2023-05-10T01:06:31.093Z,62.22
2023-05-10T01:07:30.693Z,61.69
2023-05-10T01:08:30.686Z,60.64
2023-05-10T01:09:30.659Z,59.40
2023-05-10T01:10:30.634Z,61.43
2023-05-10T01:11:30.634Z,60.85
2023-05-10T01:12:30.718Z,60.98
2023-05-10T01:13:30.740Z,62.33
2023-05-10T01:14:31.638Z,63.45
2023-05-10T01:15:30.925Z,62.69
2023-05-10T01:16:30.650Z,61.79
2023-05-10T01:17:30.609Z,63.76
2023-05-10T01:18:30.580Z,61.84
2023-05-10T01:19:30.558Z,63.55
2023-05-10T01:20:30.562Z,60.86
2023-05-10T01:21:30.599Z,61.64
2023-05-10T01:22:30.570Z,64.30
2023-05-10T01:23:30.507Z,61.24
2023-05-10T01:24:30.476Z,64.49
2023-05-10T01:25:30.517Z,65.97
2023-05-10T01:26:30.476Z,65.17
2023-05-10T01:27:30.485Z,65.36
2023-05-10T01:28:30.447Z,65.13
2023-05-10T01:29:30.417Z,64.35
2023-05-10T01:30:30.418Z,63.90
2023-05-10T01:31:30.473Z,65.43
2023-05-10T01:32:30.440Z,62.98
2023-05-10T01:33:30.403Z,63.12
2023-05-10T01:34:30.409Z,63.47
2023-05-10T01:35:30.348Z,64.26
2023-05-10T01:36:30.385Z,65.74
2023-05-10T01:37:30.340Z,64.74
2023-05-10T01:38:30.375Z,60.71
2023-05-10T01:39:30.322Z,63.27
2023-05-10T01:40:30.315Z,65.15
2023-05-10T01:41:30.316Z,64.89
2023-05-10T01:42:30.278Z,63.73
2023-05-10T01:43:30.301Z,64.83
2023-05-10T01:44:30.286Z,62.10
2023-05-10T01:45:30.249Z,62.81
2023-05-10T01:46:30.275Z,61.84
2023-05-10T01:47:30.253Z,63.20
2023-05-10T01:48:30.246Z,62.37
2023-05-10T01:49:30.232Z,63.69
2023-05-10T01:50:30.186Z,63.28
2023-05-10T01:51:30.207Z,64.30
2023-05-10T01:52:30.166Z,59.63
2023-05-10T01:53:30.193Z,66.52
2023-05-10T01:54:30.241Z,64.06
2023-05-10T01:55:30.183Z,62.52
2023-05-10T01:56:30.168Z,63.87
2023-05-10T01:57:30.102Z,65.53
2023-05-10T01:58:30.109Z,63.44
2023-05-10T01:59:30.169Z,61.69
2023-05-10T02:00:30.190Z,60.99
2023-05-10T02:01:30.781Z,64.69
2023-05-10T02:02:30.075Z,63.09
2023-05-10T02:03:30.114Z,63.21
2023-05-10T02:04:30.068Z,61.75
2023-05-10T02:05:30.059Z,62.38
2023-05-10T02:06:29.992Z,61.40
2023-05-10T02:07:30.017Z,61.87
2023-05-10T02:08:30.008Z,64.42
2023-05-10T02:09:29.995Z,64.67
2023-05-10T02:10:30.649Z,64.42
2023-05-10T02:11:29.964Z,62.88
2023-05-10T02:12:29.978Z,63.82
2023-05-10T02:13:30.026Z,63.86
2023-05-10T02:14:29.931Z,63.00
2023-05-10T02:15:29.950Z,62.35
2023-05-10T02:16:29.935Z,64.25
2023-05-10T02:17:29.884Z,64.42
2023-05-10T02:18:29.876Z,62.01
2023-05-10T02:19:29.869Z,63.46
2023-05-10T02:20:29.882Z,65.55
2023-05-10T02:21:29.897Z,65.31
2023-05-10T02:22:29.840Z,63.95
2023-05-10T02:23:29.828Z,64.29
2023-05-10T02:24:29.799Z,62.91
2023-05-10T02:25:29.833Z,60.11
2023-05-10T02:26:29.843Z,59.93
2023-05-10T02:27:29.775Z,63.25
2023-05-10T02:28:30.765Z,64.51
2023-05-10T02:29:29.770Z,63.92
2023-05-10T02:30:29.780Z,64.96
2023-05-10T02:31:29.802Z,65.15
2023-05-10T02:32:29.757Z,64.42
2023-05-10T02:33:29.702Z,60.95
2023-05-10T02:34:29.689Z,62.06
2023-05-10T02:35:29.686Z,65.75
2023-05-10T02:36:29.721Z,65.38
2023-05-10T02:37:29.694Z,67.42
2023-05-10T02:38:29.646Z,67.28
2023-05-10T02:39:29.714Z,65.25
2023-05-10T02:40:29.657Z,65.50
2023-05-10T02:41:29.647Z,66.04
2023-05-10T02:42:29.670Z,67.42
2023-05-10T02:43:29.607Z,64.91
2023-05-10T02:44:29.625Z,64.79
2023-05-10T02:45:29.567Z,67.80
2023-05-10T02:46:29.631Z,67.25
2023-05-10T02:47:29.615Z,65.97
2023-05-10T02:48:29.607Z,68.04
2023-05-10T02:49:29.532Z,66.94
2023-05-10T02:50:29.557Z,66.78
2023-05-10T02:51:29.507Z,66.40
2023-05-10T02:52:29.503Z,65.31
2023-05-10T02:53:29.586Z,65.39
2023-05-10T02:54:29.475Z,67.52
2023-05-10T02:55:29.482Z,65.71
2023-05-10T02:56:29.493Z,64.83
2023-05-10T02:57:29.479Z,64.31
2023-05-10T02:58:29.433Z,62.93
2023-05-10T02:59:29.444Z,65.79
2023-05-10T03:00:29.453Z,65.90
2023-05-10T03:01:29.442Z,62.57
2023-05-10T03:02:29.414Z,64.72
2023-05-10T03:03:29.413Z,64.98
2023-05-10T03:04:29.460Z,65.76
2023-05-10T03:05:29.379Z,65.17
2023-05-10T03:06:29.341Z,65.69
2023-05-10T03:07:29.357Z,65.77
2023-05-10T03:08:29.308Z,65.43
2023-05-10T03:09:29.378Z,66.19
2023-05-10T03:10:29.316Z,65.23
2023-05-10T03:11:29.292Z,63.31
2023-05-10T03:12:29.296Z,63.77
2023-05-10T03:13:29.478Z,66.00
2023-05-10T03:14:29.276Z,64.60
2023-05-10T03:15:29.245Z,65.25
2023-05-10T03:16:29.298Z,64.06
2023-05-10T03:17:29.278Z,64.84
2023-05-10T03:18:29.243Z,65.40
2023-05-10T03:19:29.263Z,62.22
2023-05-10T03:20:29.203Z,64.72
2023-05-10T03:21:29.179Z,65.23
2023-05-10T03:22:29.162Z,65.66
2023-05-10T03:23:29.197Z,64.33
2023-05-10T03:24:29.151Z,65.73
2023-05-10T03:25:29.151Z,63.68
2023-05-10T03:26:30.133Z,59.20
2023-05-10T03:27:29.103Z,64.69
2023-05-10T03:28:29.090Z,65.46
2023-05-10T03:29:29.128Z,63.30
2023-05-10T03:30:29.124Z,62.38
2023-05-10T03:31:29.089Z,64.22
2023-05-10T03:32:29.079Z,64.15
2023-05-10T03:33:29.037Z,63.90
2023-05-10T03:34:29.010Z,64.44
2023-05-10T03:35:29.085Z,65.73
2023-05-10T03:36:29.011Z,63.71
2023-05-10T03:37:29.015Z,62.41
2023-05-10T03:38:30.465Z,64.01
2023-05-10T03:39:28.982Z,63.84
2023-05-10T03:40:28.958Z,64.04
2023-05-10T03:41:28.989Z,62.98
2023-05-10T03:42:28.955Z,62.99
2023-05-10T03:43:28.930Z,63.75
2023-05-10T03:44:28.941Z,62.18
2023-05-10T03:45:28.910Z,64.16
2023-05-10T03:46:29.088Z,63.99
2023-05-10T03:47:28.947Z,65.13
2023-05-10T03:48:28.905Z,62.73
2023-05-10T03:49:28.849Z,63.11
2023-05-10T03:50:28.873Z,63.65
2023-05-10T03:51:28.895Z,63.70
2023-05-10T03:52:28.841Z,63.43
2023-05-10T03:53:28.825Z,64.40
2023-05-10T03:54:28.848Z,61.10
2023-05-10T03:55:28.803Z,62.43
2023-05-10T03:56:28.796Z,62.18
2023-05-10T03:57:28.830Z,62.58
2023-05-10T03:58:28.800Z,62.09
2023-05-10T03:59:28.759Z,62.23
2023-05-10T04:00:28.876Z,62.66
2023-05-10T04:01:28.740Z,65.03
2023-05-10T04:02:28.805Z,64.75
2023-05-10T04:03:28.853Z,65.33
2023-05-10T04:04:28.712Z,64.65
2023-05-10T04:05:28.703Z,64.18
2023-05-10T04:06:28.724Z,64.19
2023-05-10T04:07:28.713Z,64.67
2023-05-10T04:08:28.654Z,64.43
2023-05-10T04:09:28.685Z,64.24
2023-05-10T04:10:28.633Z,62.51
2023-05-10T04:11:28.654Z,63.73
2023-05-10T04:12:28.647Z,64.04
2023-05-10T04:13:28.683Z,63.01
2023-05-10T04:14:28.614Z,63.74
2023-05-10T04:15:28.569Z,62.92
2023-05-10T04:16:28.559Z,63.10
2023-05-10T04:17:28.638Z,63.69
2023-05-10T04:18:28.590Z,64.54
2023-05-10T04:19:28.531Z,64.60
2023-05-10T04:20:28.543Z,64.76
2023-05-10T04:21:28.513Z,64.51
2023-05-10T04:22:28.492Z,64.83
2023-05-10T04:23:28.536Z,64.62
2023-05-10T04:24:28.476Z,63.64
2023-05-10T04:25:28.476Z,65.10
2023-05-10T04:26:28.455Z,64.07
2023-05-10T04:27:28.456Z,63.58
2023-05-10T04:28:29.277Z,64.92
2023-05-10T04:29:28.418Z,64.13
2023-05-10T04:30:28.404Z,65.79
2023-05-10T04:31:28.444Z,66.71
2023-05-10T04:32:28.471Z,65.89
2023-05-10T04:33:28.375Z,63.46
2023-05-10T04:34:28.385Z,65.50
2023-05-10T04:35:28.361Z,64.96
2023-05-10T04:36:28.342Z,64.31
2023-05-10T04:37:28.328Z,66.43
2023-05-10T04:38:28.338Z,66.09
2023-05-10T04:39:28.356Z,65.07
2023-05-10T04:40:28.287Z,65.66
2023-05-10T04:41:28.306Z,65.84
2023-05-10T04:42:28.282Z,65.48
2023-05-10T04:43:28.279Z,65.74
2023-05-10T04:44:28.349Z,66.29
2023-05-10T04:45:28.249Z,66.11
2023-05-10T04:46:28.298Z,65.93
2023-05-10T04:47:28.242Z,66.04
2023-05-10T04:48:28.215Z,65.62
2023-05-10T04:49:28.244Z,66.34
2023-05-10T04:50:28.229Z,65.72
2023-05-10T04:51:28.461Z,66.11
2023-05-10T04:52:28.223Z,65.34
2023-05-10T04:53:28.144Z,65.40
2023-05-10T04:54:28.141Z,64.09
2023-05-10T04:55:28.577Z,64.13
2023-05-10T04:56:28.120Z,65.68
2023-05-10T04:57:28.116Z,65.17
2023-05-10T04:58:28.104Z,65.72
2023-05-10T04:59:28.075Z,65.73
2023-05-10T05:00:28.220Z,67.50
2023-05-10T05:01:28.094Z,65.15
2023-05-10T05:02:28.116Z,66.29
2023-05-10T05:03:28.197Z,65.46
2023-05-10T05:04:28.404Z,65.24
2023-05-10T05:05:28.005Z,65.65
2023-05-10T05:06:29.046Z,66.09
2023-05-10T05:07:28.001Z,64.96
2023-05-10T05:08:28.005Z,64.94
2023-05-10T05:09:28.025Z,65.05
2023-05-10T05:10:27.976Z,64.76
2023-05-10T05:11:28.012Z,66.90
2023-05-10T05:12:27.925Z,66.53
2023-05-10T05:13:28.016Z,65.57
2023-05-10T05:14:27.923Z,63.42
2023-05-10T05:15:27.900Z,65.71
2023-05-10T05:16:27.994Z,65.65
2023-05-10T05:17:27.931Z,64.78
2023-05-10T05:18:27.864Z,66.13
2023-05-10T05:19:27.853Z,64.93
2023-05-10T05:20:27.961Z,66.68
2023-05-10T05:21:27.904Z,66.26
2023-05-10T05:22:27.814Z,64.55
2023-05-10T05:23:27.827Z,66.49
2023-05-10T05:24:27.811Z,65.95
2023-05-10T05:25:27.792Z,65.92
2023-05-10T05:26:27.831Z,66.09
2023-05-10T05:27:27.929Z,65.58
2023-05-10T05:28:27.758Z,66.06
2023-05-10T05:29:27.799Z,65.63
2023-05-10T05:30:27.740Z,65.44
2023-05-10T05:31:27.779Z,64.84
2023-05-10T05:32:27.765Z,65.56
2023-05-10T05:33:27.703Z,64.99
2023-05-10T05:34:27.713Z,66.27
2023-05-10T05:35:27.709Z,64.70
2023-05-10T05:36:27.667Z,65.81
2023-05-10T05:37:27.786Z,65.29
2023-05-10T05:38:27.646Z,65.90
2023-05-10T05:39:27.665Z,65.71
2023-05-10T05:40:28.615Z,66.30
2023-05-10T05:41:27.610Z,65.07
2023-05-10T05:42:27.693Z,66.55
2023-05-10T05:43:27.671Z,65.36
2023-05-10T05:44:27.570Z,65.76
2023-05-10T05:45:27.563Z,66.09
2023-05-10T05:46:27.603Z,66.10
2023-05-10T05:47:27.549Z,67.19
2023-05-10T05:48:27.612Z,65.47
2023-05-10T05:49:27.517Z,65.53
2023-05-10T05:50:28.233Z,65.38
2023-05-10T05:51:27.510Z,65.49
2023-05-10T05:52:27.525Z,66.22
2023-05-10T05:53:28.504Z,65.64
2023-05-10T05:54:27.518Z,65.41
2023-05-10T05:55:27.452Z,65.64
2023-05-10T05:56:28.428Z,65.67
2023-05-10T05:57:27.441Z,65.86
2023-05-10T05:58:27.418Z,67.36
2023-05-10T05:59:28.134Z,67.05
2023-05-10T06:00:27.405Z,67.29
2023-05-10T06:01:27.425Z,65.43
2023-05-10T06:02:27.415Z,65.01
2023-05-10T06:03:27.547Z,63.90
2023-05-10T06:04:27.473Z,65.68
2023-05-10T06:05:27.362Z,64.21
2023-05-10T06:06:27.331Z,63.90
2023-05-10T06:07:27.313Z,66.21
2023-05-10T06:08:27.331Z,64.92
2023-05-10T06:09:27.320Z,63.93
2023-05-10T06:10:27.316Z,64.45
2023-05-10T06:11:27.293Z,66.64
2023-05-10T06:12:27.490Z,67.01
2023-05-10T06:13:27.318Z,65.18
2023-05-10T06:14:27.236Z,64.19
2023-05-10T06:15:27.333Z,64.19
2023-05-10T06:16:27.238Z,64.10
2023-05-10T06:17:27.320Z,66.35
2023-05-10T06:18:27.220Z,66.37
2023-05-10T06:19:27.192Z,65.45
2023-05-10T06:20:27.371Z,64.66
2023-05-10T06:21:27.177Z,64.40
2023-05-10T06:22:27.160Z,64.18
2023-05-10T06:23:27.120Z,64.90
2023-05-10T06:24:27.119Z,66.16
2023-05-10T06:25:27.166Z,64.79
2023-05-10T06:26:27.162Z,64.74
2023-05-10T06:27:27.093Z,64.32
2023-05-10T06:28:27.124Z,64.71
2023-05-10T06:29:27.072Z,65.34
2023-05-10T06:30:27.070Z,65.61
2023-05-10T06:31:27.227Z,65.15
2023-05-10T06:32:27.043Z,64.84
2023-05-10T06:33:27.068Z,64.86
2023-05-10T06:34:27.008Z,67.11
2023-05-10T06:35:27.011Z,66.49
2023-05-10T06:36:27.012Z,66.17
2023-05-10T06:37:27.060Z,64.66
2023-05-10T06:38:26.945Z,63.48
2023-05-10T06:39:26.950Z,63.92
2023-05-10T06:40:26.938Z,65.66
2023-05-10T06:41:26.975Z,63.91
2023-05-10T06:42:26.966Z,62.53
2023-05-10T06:43:26.929Z,64.78
2023-05-10T06:44:26.925Z,65.44
2023-05-10T06:45:26.886Z,64.58
2023-05-10T06:46:26.959Z,63.16
2023-05-10T06:47:26.968Z,63.72
2023-05-10T06:48:26.857Z,63.89
2023-05-10T06:49:26.851Z,63.09
2023-05-10T06:50:26.789Z,64.38
2023-05-10T06:51:26.795Z,63.56
2023-05-10T06:52:26.856Z,64.89
2023-05-10T06:53:26.805Z,64.75
2023-05-10T06:54:26.752Z,65.16
2023-05-10T06:55:26.748Z,65.07
2023-05-10T06:56:26.774Z,66.84
2023-05-10T06:57:31.867Z,62.00
2023-05-10T06:58:27.753Z,64.07
2023-05-10T06:59:26.850Z,63.98
2023-05-10T07:00:26.731Z,65.21
2023-05-10T07:01:26.764Z,65.46
2023-05-10T07:02:26.752Z,63.73
2023-05-10T07:03:26.684Z,65.11
2023-05-10T07:04:26.728Z,65.04
2023-05-10T07:05:26.712Z,64.37
2023-05-10T07:06:33.452Z,63.49
2023-05-10T07:07:26.610Z,64.75
2023-05-10T07:08:26.663Z,64.70
2023-05-10T07:09:26.592Z,64.57
2023-05-10T07:10:26.592Z,65.95
2023-05-10T07:11:26.591Z,66.30
2023-05-10T07:12:26.701Z,66.03
2023-05-10T07:13:26.665Z,64.78
2023-05-10T07:14:26.604Z,64.10
2023-05-10T07:15:26.534Z,64.78
2023-05-10T07:16:26.554Z,63.33
2023-05-10T07:17:26.641Z,64.21
2023-05-10T07:18:26.520Z,63.17
2023-05-10T07:19:26.552Z,64.41
2023-05-10T07:20:26.463Z,64.13
2023-05-10T07:21:26.459Z,64.19
2023-05-10T07:22:26.478Z,63.08
2023-05-10T07:23:26.420Z,62.89
2023-05-10T07:24:26.493Z,63.55
2023-05-10T07:25:26.400Z,63.30
2023-05-10T07:26:26.405Z,64.35
2023-05-10T07:27:26.370Z,64.21
2023-05-10T07:28:26.438Z,64.93
2023-05-10T07:29:26.407Z,63.02
2023-05-10T07:30:26.401Z,63.99
2023-05-10T07:31:26.365Z,62.81
2023-05-10T07:32:26.422Z,65.40
2023-05-10T07:33:26.327Z,63.45
2023-05-10T07:34:26.379Z,63.59
2023-05-10T07:35:26.312Z,63.23
2023-05-10T07:36:26.324Z,63.90
2023-05-10T07:37:26.269Z,65.23
2023-05-10T07:38:26.291Z,64.54
2023-05-10T07:39:27.956Z,63.88
2023-05-10T07:40:26.311Z,65.30
2023-05-10T07:41:26.254Z,64.02
2023-05-10T07:42:26.214Z,64.10
2023-05-10T07:43:26.263Z,64.36
2023-05-10T07:44:26.311Z,64.59
2023-05-10T07:45:26.234Z,65.28
2023-05-10T07:46:26.320Z,65.00
2023-05-10T07:47:26.227Z,64.39
2023-05-10T07:48:26.194Z,64.14
2023-05-10T07:49:26.344Z,64.38
2023-05-10T07:50:26.163Z,63.12
2023-05-10T07:51:26.164Z,64.74
2023-05-10T07:52:26.122Z,65.24
2023-05-10T07:53:26.163Z,65.02
2023-05-10T07:54:26.073Z,63.30
2023-05-10T07:55:26.103Z,63.42
2023-05-10T07:56:26.124Z,65.13
2023-05-10T07:57:26.074Z,64.60
2023-05-10T07:58:26.207Z,63.70
2023-05-10T07:59:26.007Z,63.36
2023-05-10T08:00:26.035Z,65.46
2023-05-10T08:01:26.039Z,63.60
2023-05-10T08:02:26.123Z,63.15
2023-05-10T08:03:26.068Z,64.16
2023-05-10T08:04:26.040Z,64.35
2023-05-10T08:05:25.964Z,61.50
2023-05-10T08:06:25.964Z,61.76
2023-05-10T08:07:25.952Z,61.52
2023-05-10T08:08:25.936Z,63.32
2023-05-10T08:09:25.967Z,62.56
2023-05-10T08:10:25.932Z,61.88
2023-05-10T08:11:26.075Z,62.96
2023-05-10T08:12:25.954Z,63.98
2023-05-10T08:13:25.881Z,61.84
2023-05-10T08:14:25.907Z,60.90
2023-05-10T08:15:25.856Z,63.98
2023-05-10T08:16:25.945Z,64.50
2023-05-10T08:17:25.948Z,62.21
2023-05-10T08:18:25.877Z,63.04
2023-05-10T08:19:25.808Z,64.70
2023-05-10T08:20:25.865Z,64.90
2023-05-10T08:21:25.785Z,62.36
2023-05-10T08:22:25.787Z,64.16
2023-05-10T08:23:25.849Z,63.26
2023-05-10T08:24:25.787Z,61.05
2023-05-10T08:25:25.745Z,63.71
2023-05-10T08:26:25.767Z,64.28
2023-05-10T08:27:25.804Z,64.31
2023-05-10T08:28:25.770Z,65.28
2023-05-10T08:29:26.804Z,63.57
2023-05-10T08:30:25.693Z,63.42
2023-05-10T08:31:25.691Z,65.29
2023-05-10T08:32:25.732Z,62.22
2023-05-10T08:33:25.727Z,62.18
2023-05-10T08:34:25.799Z,64.40
2023-05-10T08:35:25.713Z,62.12
2023-05-10T08:36:25.688Z,63.44
2023-05-10T08:37:25.646Z,63.87
2023-05-10T08:38:25.670Z,64.66
2023-05-10T08:39:30.253Z,65.48
2023-05-10T08:40:26.640Z,64.00
2023-05-10T08:41:25.617Z,63.69
2023-05-10T08:42:25.573Z,61.12
2023-05-10T08:43:25.698Z,62.66
2023-05-10T08:44:26.112Z,63.39
2023-05-10T08:45:25.644Z,62.84
2023-05-10T08:46:25.599Z,63.64
2023-05-10T08:47:25.530Z,62.84
2023-05-10T08:48:25.501Z,62.57
2023-05-10T08:49:25.505Z,62.13
2023-05-10T08:50:25.541Z,61.96
2023-05-10T08:51:25.504Z,61.97
2023-05-10T08:52:25.468Z,62.72
2023-05-10T08:53:25.909Z,63.93
2023-05-10T08:54:25.460Z,64.11
2023-05-10T08:55:25.488Z,62.09
2023-05-10T08:56:25.432Z,62.45
2023-05-10T08:57:26.434Z,62.87
2023-05-10T08:58:25.407Z,60.62
2023-05-10T08:59:25.422Z,62.61
2023-05-10T09:00:25.376Z,62.00
2023-05-10T09:01:25.612Z,61.18
2023-05-10T09:02:25.363Z,62.54
2023-05-10T09:03:25.341Z,63.02
2023-05-10T09:04:25.389Z,63.25
2023-05-10T09:05:25.348Z,62.12
2023-05-10T09:06:25.345Z,62.05
2023-05-10T09:07:25.291Z,61.61
2023-05-10T09:08:25.262Z,63.24
2023-05-10T09:09:25.276Z,62.79
2023-05-10T09:10:25.316Z,61.35
2023-05-10T09:11:25.296Z,61.73
2023-05-10T09:12:25.223Z,61.48
2023-05-10T09:13:25.277Z,60.93
2023-05-10T09:14:25.220Z,62.02
2023-05-10T09:15:25.251Z,60.90
2023-05-10T09:16:25.246Z,62.46
2023-05-10T09:17:25.296Z,59.99
2023-05-10T09:18:27.283Z,62.11
2023-05-10T09:19:25.177Z,61.31
2023-05-10T09:20:25.159Z,60.89
2023-05-10T09:21:25.157Z,59.75
2023-05-10T09:22:25.156Z,62.12
2023-05-10T09:23:25.117Z,59.52
2023-05-10T09:24:25.147Z,61.88
2023-05-10T09:25:25.092Z,62.89
2023-05-10T09:26:25.096Z,59.38
2023-05-10T09:27:25.174Z,60.01
2023-05-10T09:28:25.074Z,60.52
2023-05-10T09:29:25.108Z,61.40
2023-05-10T09:30:25.085Z,60.73
2023-05-10T09:31:25.052Z,60.40
2023-05-10T09:32:25.073Z,60.60
2023-05-10T09:33:25.024Z,61.86
2023-05-10T09:34:25.004Z,62.03
2023-05-10T09:35:27.103Z,61.76
2023-05-10T09:36:24.954Z,60.63
2023-05-10T09:37:24.937Z,63.54
2023-05-10T09:38:24.993Z,61.39
2023-05-10T09:39:25.723Z,63.16
2023-05-10T09:40:24.880Z,61.00
2023-05-10T09:41:25.478Z,61.93
2023-05-10T09:42:24.961Z,60.87
2023-05-10T09:43:24.884Z,64.42
2023-05-10T09:44:24.845Z,61.92
2023-05-10T09:45:24.895Z,63.37
2023-05-10T09:46:24.913Z,64.59
2023-05-10T09:47:24.865Z,63.31
2023-05-10T09:48:25.636Z,62.20
2023-05-10T09:49:24.824Z,60.16
2023-05-10T09:50:24.827Z,59.80
2023-05-10T09:51:24.740Z,60.83
2023-05-10T09:52:24.754Z,63.38
2023-05-10T09:53:24.775Z,60.98
2023-05-10T09:54:24.770Z,60.11
2023-05-10T09:55:24.828Z,61.60
2023-05-10T09:56:24.675Z,61.52
2023-05-10T09:57:26.697Z,61.68
2023-05-10T09:58:24.679Z,61.62
2023-05-10T09:59:24.697Z,63.55
2023-05-10T10:00:24.687Z,60.86
2023-05-10T10:01:24.638Z,62.06
2023-05-10T10:02:24.645Z,62.46
2023-05-10T10:03:24.593Z,62.00
2023-05-10T10:04:24.687Z,61.69
2023-05-10T10:05:26.079Z,61.41
2023-05-10T10:06:30.165Z,62.69
2023-05-10T10:07:24.560Z,62.62
2023-05-10T10:08:24.562Z,58.64
2023-05-10T10:09:24.588Z,61.98
2023-05-10T10:10:24.529Z,61.92
2023-05-10T10:11:24.981Z,62.96
2023-05-10T10:12:24.496Z,61.93
2023-05-10T10:13:24.493Z,58.65
2023-05-10T10:14:24.488Z,62.64
2023-05-10T10:15:24.548Z,61.15
2023-05-10T10:16:24.466Z,62.29
2023-05-10T10:17:24.470Z,61.33
2023-05-10T10:18:24.495Z,61.07
2023-05-10T10:19:24.465Z,60.53
2023-05-10T10:20:24.411Z,61.92
2023-05-10T10:21:24.382Z,63.75
2023-05-10T10:22:24.497Z,61.22
2023-05-10T10:23:24.387Z,61.33
2023-05-10T10:24:24.352Z,57.89
2023-05-10T10:25:24.371Z,62.08
2023-05-10T10:26:24.316Z,59.41
2023-05-10T10:27:24.322Z,61.79
2023-05-10T10:28:25.388Z,61.40
2023-05-10T10:29:24.341Z,60.76
2023-05-10T10:30:24.324Z,60.36
2023-05-10T10:31:24.298Z,60.10
2023-05-10T10:32:24.273Z,59.60
2023-05-10T10:33:28.486Z,60.29
2023-05-10T10:34:24.225Z,63.12
2023-05-10T10:35:24.194Z,62.74
2023-05-10T10:36:24.280Z,60.25
2023-05-10T10:37:24.180Z,61.07
2023-05-10T10:38:24.150Z,60.10
2023-05-10T10:39:24.134Z,59.45
2023-05-10T10:40:24.177Z,60.41
2023-05-10T10:41:24.199Z,61.00
2023-05-10T10:42:24.161Z,60.28
2023-05-10T10:43:25.372Z,59.61
2023-05-10T10:44:24.132Z,61.42
2023-05-10T10:45:24.131Z,62.11
2023-05-10T10:46:24.085Z,59.47
2023-05-10T10:47:24.243Z,62.56
2023-05-10T10:48:24.064Z,61.05
2023-05-10T10:49:24.036Z,61.14
2023-05-10T10:50:24.056Z,60.33
2023-05-10T10:51:24.046Z,62.40
2023-05-10T10:52:24.030Z,60.70
2023-05-10T10:53:24.047Z,62.21
2023-05-10T10:54:23.969Z,62.96
2023-05-10T10:55:23.993Z,63.17
2023-05-10T10:56:23.998Z,61.42
2023-05-10T10:57:23.948Z,60.88
2023-05-10T10:58:23.949Z,62.64
2023-05-10T10:59:23.982Z,62.79
2023-05-10T11:00:23.963Z,63.00
2023-05-10T11:01:23.927Z,62.88
2023-05-10T11:02:23.876Z,64.68
2023-05-10T11:03:23.921Z,64.42
2023-05-10T11:04:23.915Z,63.60
2023-05-10T11:05:23.828Z,62.08
2023-05-10T11:06:23.863Z,62.56
2023-05-10T11:07:23.840Z,61.93
2023-05-10T11:08:23.830Z,62.44
2023-05-10T11:09:23.796Z,62.00
2023-05-10T11:10:23.884Z,63.24
2023-05-10T11:11:23.756Z,61.78
2023-05-10T11:12:23.843Z,62.13
2023-05-10T11:13:23.798Z,61.14
2023-05-10T11:14:23.764Z,62.77
2023-05-10T11:15:23.768Z,61.68
2023-05-10T11:16:23.730Z,62.51
2023-05-10T11:17:23.737Z,62.55
2023-05-10T11:18:23.742Z,65.64
2023-05-10T11:19:23.708Z,65.48
2023-05-10T11:20:23.650Z,64.58
2023-05-10T11:21:23.628Z,64.19
2023-05-10T11:22:23.700Z,64.26
2023-05-10T11:23:23.738Z,65.09
2023-05-10T11:24:23.608Z,63.16
2023-05-10T11:25:23.584Z,63.92
2023-05-10T11:26:23.594Z,65.01
2023-05-10T11:27:23.557Z,61.97
2023-05-10T11:28:23.637Z,63.55
2023-05-10T11:29:25.115Z,64.21
2023-05-10T11:30:24.545Z,63.57
2023-05-10T11:31:23.628Z,62.74
2023-05-10T11:32:23.555Z,64.49
2023-05-10T11:33:23.512Z,62.03
2023-05-10T11:34:23.497Z,64.25
2023-05-10T11:35:23.465Z,64.84
2023-05-10T11:36:23.453Z,63.86
2023-05-10T11:37:23.458Z,64.02
2023-05-10T11:38:23.844Z,64.41
2023-05-10T11:39:23.460Z,65.27
2023-05-10T11:40:23.449Z,65.61
2023-05-10T11:41:23.399Z,64.84
2023-05-10T11:42:23.422Z,65.73
2023-05-10T11:43:23.434Z,65.50
2023-05-10T11:44:23.403Z,65.80
2023-05-10T11:45:23.360Z,65.61
2023-05-10T11:46:23.337Z,65.72
2023-05-10T11:47:23.728Z,64.89
2023-05-10T11:48:23.304Z,66.82
2023-05-10T11:49:23.335Z,66.26
2023-05-10T11:50:23.290Z,67.27
2023-05-10T11:51:23.294Z,66.56
2023-05-10T11:52:23.265Z,63.83
2023-05-10T11:53:24.803Z,65.39
2023-05-10T11:54:23.213Z,65.37
2023-05-10T11:55:23.268Z,65.72
2023-05-10T11:56:23.241Z,64.90
2023-05-10T11:57:23.196Z,68.10
2023-05-10T11:58:23.187Z,66.82
2023-05-10T11:59:23.171Z,64.55
2023-05-10T12:00:23.190Z,67.00
2023-05-10T12:01:23.150Z,67.43
2023-05-10T12:02:23.296Z,67.69
2023-05-10T12:03:23.242Z,66.43
2023-05-10T12:04:23.237Z,65.67
2023-05-10T12:05:23.182Z,67.31
2023-05-10T12:06:23.192Z,66.30
2023-05-10T12:07:23.102Z,67.52
2023-05-10T12:08:23.151Z,68.17
2023-05-10T12:09:39.421Z,68.25
2023-05-10T12:10:23.055Z,67.94
2023-05-10T12:11:23.164Z,67.20
2023-05-10T12:12:23.089Z,69.63
2023-05-10T12:13:23.091Z,69.93
2023-05-10T12:14:23.021Z,69.60
2023-05-10T12:15:23.072Z,68.68
2023-05-10T12:16:23.036Z,69.46
2023-05-10T12:17:23.092Z,67.61
2023-05-10T12:18:23.015Z,67.31
2023-05-10T12:19:22.952Z,67.68
2023-05-10T12:20:22.932Z,68.54
2023-05-10T12:21:22.926Z,68.83
2023-05-10T12:22:22.956Z,68.18
2023-05-10T12:23:22.941Z,68.83
2023-05-10T12:24:22.908Z,67.67
2023-05-10T12:25:22.901Z,67.00
2023-05-10T12:26:22.890Z,68.28
2023-05-10T12:27:22.926Z,68.68
2023-05-10T12:28:22.851Z,67.08
2023-05-10T12:29:22.909Z,67.85
2023-05-10T12:30:22.878Z,68.97
2023-05-10T12:31:22.863Z,68.01
2023-05-10T12:32:22.840Z,66.63
2023-05-10T12:33:23.535Z,68.61
2023-05-10T12:34:22.853Z,68.26
2023-05-10T12:35:22.782Z,67.72
2023-05-10T12:36:22.763Z,67.57
2023-05-10T12:37:22.775Z,65.60
2023-05-10T12:38:22.896Z,66.90
2023-05-10T12:39:24.204Z,67.20
2023-05-10T12:40:23.526Z,66.27
2023-05-10T12:41:22.893Z,67.07
2023-05-10T12:42:23.420Z,66.39
2023-05-10T12:43:22.720Z,64.50
2023-05-10T12:44:22.742Z,63.59
2023-05-10T12:45:22.677Z,64.05
2023-05-10T12:46:22.737Z,64.06
2023-05-10T12:47:22.662Z,62.44
2023-05-10T12:48:22.652Z,63.56
2023-05-10T12:49:22.714Z,61.70
2023-05-10T12:50:22.686Z,65.21
2023-05-10T12:51:22.677Z,65.20
2023-05-10T12:52:22.611Z,65.28